Time,TemperatureF,DewpointF,PressureIn,WindDirection,WindDirectionDegrees,WindSpeedMPH,WindSpeedGustMPH,Humidity,HourlyPrecipIn,Conditions,Clouds,dailyrainin,SoftwareType,DateUTC
2013-09-05 00:01:00,62.5,57.9,30.06,WNW,282,0.0,0.0,85,0.00,,CLR,0.01,VWS V14.01,2013-09-05 04:01:00,
2013-09-05 00:02:00,62.6,58.0,30.06,WNW,282,0.0,0.0,85,0.00,,CLR,0.00,VWS V14.01,2013-09-05 04:02:00,
2013-09-05 00:04:00,62.8,57.9,30.06,WNW,282,0.0,0.0,84,0.00,,CLR,0.00,VWS V14.01,2013-09-05 04:04:00,
2013-09-05 00:09:00,63.2,58.0,30.07,WNW,282,0.0,0.0,83,0.00,,CLR,0.00,VWS V14.01,2013-09-05 04:09:00,
2013-09-05 00:12:00,63.4,58.2,30.07,WNW,282,0.0,1.0,83,0.00,,CLR,0.00,VWS V14.01,2013-09-05 04:12:00,
2013-09-05 00:17:00,63.5,58.2,30.07,WNW,282,0.0,2.0,83,0.00,,CLR,0.00,VWS V14.01,2013-09-05 04:17:00,
2013-09-05 00:22:00,63.6,58.3,30.07,WNW,282,0.0,2.0,83,0.00,,CLR,0.00,VWS V14.01,2013-09-05 04:22:00,
2013-09-05 00:28:00,63.8,58.5,30.06,WNW,282,1.0,2.0,83,0.00,,CLR,0.00,VWS V14.01,2013-09-05 04:28:00,
2013-09-05 00:33:00,64.0,58.4,30.06,WNW,282,0.0,2.0,82,0.00,,CLR,0.00,VWS V14.01,2013-09-05 04:33:00,
2013-09-05 00:38:00,64.3,58.3,30.06,WNW,282,0.0,2.0,81,0.00,,CLR,0.00,VWS V14.01,2013-09-05 04:38:00,
2013-09-05 00:43:00,64.3,58.0,30.07,WNW,282,0.0,2.0,80,0.00,,CLR,0.00,VWS V14.01,2013-09-05 04:43:00,
2013-09-05 00:48:00,64.1,58.2,30.06,WNW,282,0.0,2.0,81,0.00,,CLR,0.00,VWS V14.01,2013-09-05 04:48:00,
2013-09-05 00:53:00,63.9,58.3,30.06,WNW,282,0.0,2.0,82,0.00,,CLR,0.00,VWS V14.01,2013-09-05 04:53:00,
2013-09-05 00:58:00,63.6,58.0,30.06,WNW,282,0.0,2.0,82,0.00,,CLR,0.00,VWS V14.01,2013-09-05 04:58:00,
2013-09-05 01:03:00,63.3,58.1,30.07,WNW,282,0.0,0.0,83,0.00,,CLR,0.00,VWS V14.01,2013-09-05 05:03:00,
2013-09-05 01:08:00,63.1,58.2,30.07,WNW,282,0.0,0.0,84,0.00,,CLR,0.00,VWS V14.01,2013-09-05 05:08:00,
2013-09-05 01:13:00,62.9,58.0,30.07,WNW,282,0.0,1.0,84,0.00,,CLR,0.00,VWS V14.01,2013-09-05 05:13:00,
2013-09-05 01:18:00,62.8,57.9,30.07,WNW,282,1.0,1.0,84,0.00,,CLR,0.00,VWS V14.01,2013-09-05 05:18:00,
2013-09-05 01:23:00,62.8,57.9,30.06,WNW,282,0.0,2.0,84,0.00,,CLR,0.00,VWS V14.01,2013-09-05 05:23:00,
2013-09-05 01:28:00,62.9,58.0,30.07,WNW,282,0.0,2.0,84,0.00,,CLR,0.00,VWS V14.01,2013-09-05 05:28:00,
2013-09-05 01:33:00,63.0,58.1,30.06,WNW,282,0.0,0.0,84,0.00,,CLR,0.00,VWS V14.01,2013-09-05 05:33:00,
2013-09-05 01:38:00,63.0,58.1,30.06,WNW,282,0.0,1.0,84,0.00,,CLR,0.00,VWS V14.01,2013-09-05 05:38:00,
2013-09-05 01:43:00,62.9,58.0,30.06,WNW,282,0.0,1.0,84,0.00,,CLR,0.00,VWS V14.01,2013-09-05 05:43:00,
2013-09-05 01:48:00,62.9,58.0,30.06,WNW,282,0.0,1.0,84,0.00,,CLR,0.00,VWS V14.01,2013-09-05 05:48:00,
2013-09-05 01:54:00,62.8,57.9,30.06,WNW,282,0.0,1.0,84,0.00,,CLR,0.00,VWS V14.01,2013-09-05 05:54:00,
2013-09-05 01:59:00,62.9,58.0,30.06,WNW,282,0.0,1.0,84,0.00,,CLR,0.00,VWS V14.01,2013-09-05 05:59:00,
2013-09-05 02:04:00,62.9,58.0,30.06,WNW,282,0.0,1.0,84,0.00,,CLR,0.00,VWS V14.01,2013-09-05 06:04:00,
2013-09-05 02:09:00,63.0,58.1,30.06,WNW,282,0.0,2.0,84,0.00,,CLR,0.00,VWS V14.01,2013-09-05 06:09:00,
2013-09-05 02:14:00,63.1,58.5,30.07,WNW,282,0.0,2.0,85,0.00,,CLR,0.00,VWS V14.01,2013-09-05 06:14:00,
2013-09-05 02:19:00,63.0,58.8,30.07,WNW,282,0.0,2.0,86,0.00,,CLR,0.00,VWS V14.01,2013-09-05 06:19:00,
2013-09-05 02:24:00,62.9,59.0,30.07,WNW,282,0.0,2.0,87,0.00,,CLR,0.00,VWS V14.01,2013-09-05 06:24:00,
2013-09-05 02:29:00,62.9,58.3,30.07,WNW,282,0.0,2.0,85,0.00,,CLR,0.00,VWS V14.01,2013-09-05 06:29:00,
2013-09-05 02:34:00,63.1,58.5,30.07,WNW,282,0.0,2.0,85,0.00,,CLR,0.00,VWS V14.01,2013-09-05 06:34:00,
2013-09-05 02:39:00,63.2,58.6,30.06,WNW,282,0.0,2.0,85,0.00,,CLR,0.00,VWS V14.01,2013-09-05 06:39:00,
2013-09-05 02:44:00,63.0,58.8,30.07,WNW,282,0.0,2.0,86,0.00,,CLR,0.00,VWS V14.01,2013-09-05 06:44:00,
2013-09-05 02:49:00,62.8,58.9,30.07,WNW,282,0.0,2.0,87,0.00,,CLR,0.00,VWS V14.01,2013-09-05 06:49:00,
2013-09-05 02:54:00,62.6,58.7,30.07,WNW,282,0.0,2.0,87,0.00,,CLR,0.00,VWS V14.01,2013-09-05 06:54:00,
2013-09-05 02:59:00,62.6,58.7,30.07,WNW,282,0.0,2.0,87,0.00,,CLR,0.00,VWS V14.01,2013-09-05 06:59:00,
2013-09-05 03:04:00,62.7,58.8,30.07,NNW,333,0.0,4.0,87,0.00,,BKN070,0.00,VWS V14.01,2013-09-05 07:04:00,
2013-09-05 03:09:00,62.9,59.0,30.07,NNW,327,0.0,4.0,87,0.00,,BKN070,0.00,VWS V14.01,2013-09-05 07:09:00,
2013-09-05 03:14:00,63.1,58.8,30.06,NW,324,0.0,4.0,86,0.00,,BKN070,0.00,VWS V14.01,2013-09-05 07:14:00,
2013-09-05 03:19:00,63.2,59.0,30.06,NNW,331,0.0,4.0,86,0.00,,BKN070,0.00,VWS V14.01,2013-09-05 07:19:00,
2013-09-05 03:24:00,63.3,59.0,30.06,NW,312,0.0,5.0,86,0.00,,BKN070,0.00,VWS V14.01,2013-09-05 07:24:00,
2013-09-05 03:30:00,63.4,59.2,30.07,NNW,335,1.0,5.0,86,0.00,,BKN070,0.00,VWS V14.01,2013-09-05 07:30:00,
2013-09-05 03:35:00,63.3,59.0,30.07,NW,324,0.0,1.0,86,0.00,,BKN070,0.00,VWS V14.01,2013-09-05 07:35:00,
2013-09-05 03:40:00,63.0,58.8,30.07,NW,323,0.0,3.0,86,0.00,,BKN070,0.00,VWS V14.01,2013-09-05 07:40:00,
2013-09-05 03:45:00,62.9,59.0,30.07,NW,323,0.0,3.0,87,0.00,,BKN070,0.00,VWS V14.01,2013-09-05 07:45:00,
2013-09-05 03:50:00,62.6,58.7,30.07,NW,317,0.0,3.0,87,0.00,,BKN070,0.00,VWS V14.01,2013-09-05 07:50:00,
2013-09-05 03:55:00,62.5,58.9,30.07,NW,316,3.0,3.0,88,0.00,,BKN070,0.00,VWS V14.01,2013-09-05 07:55:00,
2013-09-05 04:00:00,62.4,58.8,30.07,NW,315,1.0,3.0,88,0.00,,SCT070,0.00,VWS V14.01,2013-09-05 08:00:00,
2013-09-05 04:05:00,62.3,59.0,30.07,NW,315,0.0,1.0,89,0.00,,SCT070,0.00,VWS V14.01,2013-09-05 08:05:00,
2013-09-05 04:10:00,62.2,58.9,30.07,NW,315,0.0,2.0,89,0.00,,SCT070,0.00,VWS V14.01,2013-09-05 08:10:00,
2013-09-05 04:15:00,62.0,59.0,30.07,NW,315,0.0,2.0,90,0.00,,SCT070,0.00,VWS V14.01,2013-09-05 08:15:00,
2013-09-05 04:20:00,61.8,58.8,30.07,NW,315,0.0,2.0,90,0.00,,SCT070,0.00,VWS V14.01,2013-09-05 08:20:00,
2013-09-05 04:25:00,61.7,58.7,30.08,NW,315,0.0,2.0,90,0.00,,SCT070,0.00,VWS V14.01,2013-09-05 08:25:00,
2013-09-05 04:30:00,61.6,59.0,30.07,NW,315,0.0,2.0,91,0.00,,SCT070,0.00,VWS V14.01,2013-09-05 08:30:00,
2013-09-05 04:35:00,61.5,58.8,30.08,NW,315,0.0,1.0,91,0.00,,SCT070,0.00,VWS V14.01,2013-09-05 08:35:00,
2013-09-05 04:40:00,61.5,58.8,30.08,NW,315,1.0,1.0,91,0.00,,SCT070,0.00,VWS V14.01,2013-09-05 08:40:00,
2013-09-05 04:45:00,61.5,59.2,30.08,NNW,330,0.0,2.0,92,0.00,,SCT070,0.00,VWS V14.01,2013-09-05 08:45:00,
2013-09-05 04:50:00,61.5,59.2,30.08,NNW,330,0.0,2.0,92,0.00,,SCT070,0.00,VWS V14.01,2013-09-05 08:50:00,
2013-09-05 04:55:00,61.4,59.1,30.08,NNW,330,0.0,2.0,92,0.00,,SCT070,0.00,VWS V14.01,2013-09-05 08:55:00,
2013-09-05 05:00:00,61.3,59.0,30.08,NNW,330,0.0,2.0,92,0.00,,FEW060,0.00,VWS V14.01,2013-09-05 09:00:00,
2013-09-05 05:05:00,61.2,58.9,30.08,NNW,330,0.0,0.0,92,0.00,,FEW060,0.00,VWS V14.01,2013-09-05 09:05:00,
2013-09-05 05:10:00,61.0,59.0,30.08,NNW,330,0.0,1.0,93,0.00,,FEW060,0.00,VWS V14.01,2013-09-05 09:10:00,
2013-09-05 05:15:00,60.9,58.9,30.08,NNW,330,0.0,1.0,93,0.00,,FEW060,0.00,VWS V14.01,2013-09-05 09:15:00,
2013-09-05 05:20:00,60.8,58.8,30.09,NNW,330,0.0,1.0,93,0.00,,FEW060,0.00,VWS V14.01,2013-09-05 09:20:00,
2013-09-05 05:25:00,60.7,59.0,30.09,NNW,330,0.0,1.0,94,0.00,,FEW060,0.00,VWS V14.01,2013-09-05 09:25:00,
2013-09-05 05:30:00,60.7,59.0,30.09,NNW,330,0.0,1.0,94,0.00,,FEW060,0.00,VWS V14.01,2013-09-05 09:30:00,
2013-09-05 05:36:00,60.7,59.0,30.09,NNW,330,0.0,1.0,94,0.00,,FEW060,0.00,VWS V14.01,2013-09-05 09:36:00,
2013-09-05 05:41:00,60.7,59.3,30.09,NNW,330,0.0,1.0,95,0.00,,FEW060,0.00,VWS V14.01,2013-09-05 09:41:00,
2013-09-05 05:46:00,60.7,59.3,30.10,NW,313,0.0,2.0,95,0.00,,FEW060,0.00,VWS V14.01,2013-09-05 09:46:00,
2013-09-05 05:51:00,60.8,59.4,30.10,NW,313,0.0,2.0,95,0.00,,FEW060,0.00,VWS V14.01,2013-09-05 09:51:00,
2013-09-05 05:56:00,60.9,59.5,30.10,NW,313,0.0,2.0,95,0.00,,FEW060,0.00,VWS V14.01,2013-09-05 09:56:00,
2013-09-05 06:01:00,60.9,59.5,30.10,NW,313,0.0,2.0,95,0.00,,SCT055,0.00,VWS V14.01,2013-09-05 10:01:00,
2013-09-05 06:06:00,61.0,59.6,30.10,NW,313,0.0,2.0,95,0.00,,SCT055,0.00,VWS V14.01,2013-09-05 10:06:00,
2013-09-05 06:11:00,61.0,59.9,30.10,NW,313,0.0,2.0,96,0.00,,SCT055,0.00,VWS V14.01,2013-09-05 10:11:00,
2013-09-05 06:16:00,60.9,59.5,30.10,NW,313,0.0,2.0,95,0.00,,SCT055,0.00,VWS V14.01,2013-09-05 10:16:00,
2013-09-05 06:21:00,60.9,59.8,30.10,NW,313,0.0,3.0,96,0.00,,SCT055,0.00,VWS V14.01,2013-09-05 10:21:00,
2013-09-05 06:26:00,61.0,59.9,30.11,NW,313,0.0,3.0,96,0.00,,SCT055,0.00,VWS V14.01,2013-09-05 10:26:00,
2013-09-05 06:31:00,61.0,59.9,30.11,NW,313,0.0,0.0,96,0.00,,SCT055,0.00,VWS V14.01,2013-09-05 10:31:00,
2013-09-05 06:36:00,61.0,59.9,30.11,NW,313,0.0,3.0,96,0.00,,SCT055,0.00,VWS V14.01,2013-09-05 10:36:00,
2013-09-05 06:41:00,61.2,60.3,30.11,WNW,295,1.0,4.0,97,0.00,,SCT055,0.00,VWS V14.01,2013-09-05 10:41:00,
2013-09-05 06:46:00,61.2,60.3,30.11,NW,317,0.0,4.0,97,0.00,,SCT055,0.00,VWS V14.01,2013-09-05 10:46:00,
2013-09-05 06:51:00,61.2,60.3,30.11,NW,317,1.0,4.0,97,0.00,,SCT055,0.00,VWS V14.01,2013-09-05 10:51:00,
2013-09-05 06:56:00,61.1,60.0,30.11,NW,317,0.0,4.0,96,0.00,,SCT055,0.00,VWS V14.01,2013-09-05 10:56:00,
2013-09-05 07:01:00,61.0,59.9,30.12,NW,317,0.0,1.0,96,0.00,,SCT036,0.00,VWS V14.01,2013-09-05 11:01:00,
2013-09-05 07:06:00,60.8,59.7,30.12,NW,317,0.0,1.0,96,0.00,,SCT036,0.00,VWS V14.01,2013-09-05 11:06:00,
2013-09-05 07:11:00,60.5,59.4,30.12,NW,317,0.0,1.0,96,0.00,,SCT036,0.00,VWS V14.01,2013-09-05 11:11:00,
2013-09-05 07:16:00,60.4,59.3,30.12,NW,317,0.0,1.0,96,0.00,,SCT036,0.00,VWS V14.01,2013-09-05 11:16:00,
2013-09-05 07:21:00,60.2,59.1,30.12,NW,317,0.0,1.0,96,0.00,,SCT036,0.00,VWS V14.01,2013-09-05 11:21:00,
2013-09-05 07:27:00,60.1,59.0,30.12,NW,317,0.0,1.0,96,0.00,,SCT036,0.00,VWS V14.01,2013-09-05 11:27:00,
2013-09-05 07:32:00,60.1,59.2,30.12,NW,317,0.0,0.0,97,0.00,,SCT036,0.00,VWS V14.01,2013-09-05 11:32:00,
2013-09-05 07:37:00,60.1,59.2,30.13,NW,317,0.0,0.0,97,0.00,,SCT036,0.00,VWS V14.01,2013-09-05 11:37:00,
2013-09-05 07:42:00,60.2,59.3,30.13,NW,317,0.0,0.0,97,0.00,,SCT036,0.00,VWS V14.01,2013-09-05 11:42:00,
2013-09-05 07:47:00,60.5,59.9,30.13,NW,317,0.0,0.0,98,0.00,,SCT036,0.00,VWS V14.01,2013-09-05 11:47:00,
2013-09-05 07:52:00,60.9,60.3,30.13,NW,317,0.0,0.0,98,0.00,,SCT036,0.00,VWS V14.01,2013-09-05 11:52:00,
2013-09-05 07:57:00,61.4,60.8,30.13,NW,325,0.0,2.0,98,0.00,,SCT036,0.00,VWS V14.01,2013-09-05 11:57:00,
2013-09-05 08:02:00,61.8,61.2,30.13,North,350,0.0,0.0,98,0.00,,SCT036,0.00,VWS V14.01,2013-09-05 12:02:00,
2013-09-05 08:07:00,62.1,61.2,30.13,North,350,1.0,3.0,97,0.00,,SCT036,0.00,VWS V14.01,2013-09-05 12:07:00,
2013-09-05 08:12:00,62.5,61.3,30.14,NNE,26,0.0,5.0,96,0.00,,SCT036,0.00,VWS V14.01,2013-09-05 12:12:00,
2013-09-05 08:17:00,62.8,61.3,30.13,NNE,24,0.0,5.0,95,0.00,,SCT036,0.00,VWS V14.01,2013-09-05 12:17:00,
2013-09-05 08:22:00,63.1,61.0,30.14,NNE,15,3.0,5.0,93,0.00,,SCT036,0.00,VWS V14.01,2013-09-05 12:22:00,
2013-09-05 08:27:00,63.2,61.2,30.14,North,360,0.0,5.0,93,0.00,,SCT036,0.00,VWS V14.01,2013-09-05 12:27:00,
2013-09-05 08:32:00,63.2,61.2,30.14,NNE,21,0.0,4.0,93,0.00,,SCT036,0.00,VWS V14.01,2013-09-05 12:32:00,
2013-09-05 08:37:00,63.4,61.0,30.14,North,350,3.0,4.0,92,0.00,,SCT036,0.00,VWS V14.01,2013-09-05 12:37:00,
2013-09-05 08:42:00,63.4,61.0,30.14,North,5,3.0,4.0,92,0.00,,SCT036,0.00,VWS V14.01,2013-09-05 12:42:00,
2013-09-05 08:47:00,63.8,61.4,30.14,NNE,13,2.0,4.0,92,0.00,,SCT036,0.00,VWS V14.01,2013-09-05 12:47:00,
2013-09-05 08:52:00,64.2,61.2,30.14,NNE,30,4.0,5.0,90,0.00,,SCT036,0.00,VWS V14.01,2013-09-05 12:52:00,
2013-09-05 08:57:00,64.3,61.0,30.14,ENE,71,2.0,5.0,89,0.00,,SCT036,0.00,VWS V14.01,2013-09-05 12:57:00,
2013-09-05 09:02:00,64.4,61.1,30.14,North,5,0.0,2.0,89,0.00,,BKN015,0.00,VWS V14.01,2013-09-05 13:02:00,
2013-09-05 09:07:00,64.6,61.0,30.14,NNE,33,1.0,3.0,88,0.00,,BKN015,0.00,VWS V14.01,2013-09-05 13:07:00,
2013-09-05 09:12:00,65.2,61.6,30.14,NE,38,0.0,3.0,88,0.00,,BKN015,0.00,VWS V14.01,2013-09-05 13:12:00,
2013-09-05 09:17:00,65.7,61.4,30.14,North,355,5.0,7.0,86,0.00,,BKN015,0.00,VWS V14.01,2013-09-05 13:17:00,
2013-09-05 09:22:00,65.8,61.5,30.14,NNE,25,0.0,7.0,86,0.00,,BKN015,0.00,VWS V14.01,2013-09-05 13:22:00,
2013-09-05 09:28:00,65.8,60.5,30.15,North,10,1.0,8.0,83,0.00,,BKN015,0.00,VWS V14.01,2013-09-05 13:28:00,
2013-09-05 09:33:00,66.1,61.1,30.15,NNE,19,2.0,4.0,84,0.00,,BKN015,0.00,VWS V14.01,2013-09-05 13:33:00,
2013-09-05 09:38:00,66.4,61.1,30.15,NNE,15,4.0,6.0,83,0.00,,BKN015,0.00,VWS V14.01,2013-09-05 13:38:00,
2013-09-05 09:43:00,66.4,61.1,30.15,North,5,3.0,6.0,83,0.00,,BKN015,0.00,VWS V14.01,2013-09-05 13:43:00,
2013-09-05 09:48:00,67.0,61.0,30.15,NNW,344,1.0,6.0,81,0.00,,BKN015,0.00,VWS V14.01,2013-09-05 13:48:00,
2013-09-05 09:53:00,67.3,61.3,30.15,North,355,5.0,6.0,81,0.00,,BKN015,0.00,VWS V14.01,2013-09-05 13:53:00,
2013-09-05 09:58:00,67.4,61.4,30.15,NNW,329,1.0,6.0,81,0.00,,BKN015,0.00,VWS V14.01,2013-09-05 13:58:00,
2013-09-05 10:03:00,67.9,61.2,30.15,NNE,30,1.0,2.0,79,0.00,,SCT031,0.00,VWS V14.01,2013-09-05 14:03:00,
2013-09-05 10:08:00,68.1,60.3,30.15,NNE,27,5.0,9.0,76,0.00,,SCT031,0.00,VWS V14.01,2013-09-05 14:08:00,
2013-09-05 10:13:00,68.1,60.3,30.16,North,11,1.0,9.0,76,0.00,,SCT031,0.00,VWS V14.01,2013-09-05 14:13:00,
2013-09-05 10:18:00,67.6,59.4,30.16,WNW,302,6.0,9.0,75,0.00,,SCT031,0.00,VWS V14.01,2013-09-05 14:18:00,
2013-09-05 10:23:00,67.2,59.8,30.16,North,9,5.0,9.0,77,0.00,,SCT031,0.00,VWS V14.01,2013-09-05 14:23:00,
2013-09-05 10:28:00,67.4,59.6,30.16,NNE,17,3.0,9.0,76,0.00,,SCT031,0.00,VWS V14.01,2013-09-05 14:28:00,
2013-09-05 10:33:00,68.1,59.9,30.16,WNW,298,3.0,8.0,75,0.00,,SCT031,0.00,VWS V14.01,2013-09-05 14:33:00,
2013-09-05 10:38:00,68.2,60.0,30.16,WNW,300,4.0,8.0,75,0.00,,SCT031,0.00,VWS V14.01,2013-09-05 14:38:00,
2013-09-05 10:43:00,67.8,58.8,30.16,NNW,333,1.0,8.0,73,0.00,,SCT031,0.00,VWS V14.01,2013-09-05 14:43:00,
2013-09-05 10:48:00,68.1,59.1,30.16,NW,317,4.0,10.0,73,0.00,,SCT031,0.00,VWS V14.01,2013-09-05 14:48:00,
2013-09-05 10:53:00,68.0,59.0,30.16,WNW,295,3.0,10.0,73,0.00,,SCT031,0.00,VWS V14.01,2013-09-05 14:53:00,
2013-09-05 10:58:00,68.0,58.3,30.16,NNW,344,0.0,10.0,71,0.00,,SCT031,0.00,VWS V14.01,2013-09-05 14:58:00,
2013-09-05 11:03:00,67.9,58.5,30.16,NW,304,4.0,6.0,72,0.00,,BKN027,0.00,VWS V14.01,2013-09-05 15:03:00,
2013-09-05 11:08:00,68.5,57.9,30.16,North,5,5.0,10.0,69,0.00,,BKN027,0.00,VWS V14.01,2013-09-05 15:08:00,
2013-09-05 11:13:00,68.5,58.7,30.16,North,5,1.0,10.0,71,0.00,,BKN027,0.00,VWS V14.01,2013-09-05 15:13:00,
2013-09-05 11:19:00,68.8,58.6,30.16,NW,320,1.0,10.0,70,0.00,,BKN027,0.00,VWS V14.01,2013-09-05 15:19:00,
2013-09-05 11:24:00,69.5,57.2,30.17,North,355,3.0,10.0,65,0.00,,BKN027,0.00,VWS V14.01,2013-09-05 15:24:00,
2013-09-05 11:29:00,70.1,58.2,30.16,NW,315,2.0,10.0,66,0.00,,BKN027,0.00,VWS V14.01,2013-09-05 15:29:00,
2013-09-05 11:34:00,70.2,57.5,30.16,NNW,333,1.0,8.0,64,0.00,,BKN027,0.00,VWS V14.01,2013-09-05 15:34:00,
2013-09-05 11:39:00,70.8,59.3,30.16,NNW,328,5.0,8.0,67,0.00,,BKN027,0.00,VWS V14.01,2013-09-05 15:39:00,
2013-09-05 11:44:00,70.5,56.4,30.17,NW,314,4.0,10.0,61,0.00,,BKN027,0.00,VWS V14.01,2013-09-05 15:44:00,
2013-09-05 11:49:00,69.7,56.1,30.17,WNW,292,4.0,10.0,62,0.00,,BKN027,0.00,VWS V14.01,2013-09-05 15:49:00,
2013-09-05 11:54:00,69.9,56.8,30.17,NNW,334,4.0,10.0,63,0.00,,BKN027,0.00,VWS V14.01,2013-09-05 15:54:00,
2013-09-05 11:59:00,70.5,57.8,30.17,WNW,298,3.0,10.0,64,0.00,,BKN027,0.00,VWS V14.01,2013-09-05 15:59:00,
2013-09-05 12:04:00,69.9,57.2,30.17,West,273,3.0,6.0,64,0.00,,SCT033,0.00,VWS V14.01,2013-09-05 16:04:00,
2013-09-05 12:09:00,69.4,55.4,30.17,NNW,338,5.0,9.0,61,0.00,,SCT033,0.00,VWS V14.01,2013-09-05 16:09:00,
2013-09-05 12:14:00,69.7,56.6,30.17,NNE,30,3.0,9.0,63,0.00,,SCT033,0.00,VWS V14.01,2013-09-05 16:14:00,
2013-09-05 12:19:00,69.6,54.7,30.17,NNW,327,2.0,9.0,59,0.00,,SCT033,0.00,VWS V14.01,2013-09-05 16:19:00,
2013-09-05 12:24:00,70.0,56.8,30.17,WNW,300,2.0,9.0,63,0.00,,SCT033,0.00,VWS V14.01,2013-09-05 16:24:00,
2013-09-05 12:29:00,70.6,57.8,30.17,NW,321,0.0,9.0,64,0.00,,SCT033,0.00,VWS V14.01,2013-09-05 16:29:00,
2013-09-05 12:34:00,70.9,56.3,30.17,WNW,299,5.0,8.0,60,0.00,,SCT033,0.00,VWS V14.01,2013-09-05 16:34:00,
2013-09-05 12:39:00,70.4,54.9,30.17,WNW,289,3.0,10.0,58,0.00,,SCT033,0.00,VWS V14.01,2013-09-05 16:39:00,
2013-09-05 12:44:00,70.5,54.5,30.17,NW,307,3.0,10.0,57,0.00,,SCT033,0.00,VWS V14.01,2013-09-05 16:44:00,
2013-09-05 12:50:00,70.9,55.4,30.17,WNW,297,3.0,10.0,58,0.00,,SCT033,0.00,VWS V14.01,2013-09-05 16:50:00,
2013-09-05 12:55:00,70.8,55.3,30.16,WNW,294,4.0,10.0,58,0.00,,SCT033,0.00,VWS V14.01,2013-09-05 16:55:00,
2013-09-05 13:00:00,70.9,55.9,30.16,NW,307,3.0,10.0,59,0.00,,BKN041,0.00,VWS V14.01,2013-09-05 17:00:00,
2013-09-05 13:05:00,71.1,58.3,30.16,NW,326,2.0,7.0,64,0.00,,BKN041,0.00,VWS V14.01,2013-09-05 17:05:00,
2013-09-05 13:10:00,70.7,56.2,30.17,North,10,5.0,10.0,60,0.00,,BKN041,0.00,VWS V14.01,2013-09-05 17:10:00,
2013-09-05 13:15:00,70.6,56.1,30.16,NW,324,5.0,11.0,60,0.00,,BKN041,0.00,VWS V14.01,2013-09-05 17:15:00,
2013-09-05 13:20:00,70.1,56.0,30.17,NW,325,2.0,11.0,61,0.00,,BKN041,0.00,VWS V14.01,2013-09-05 17:20:00,
2013-09-05 13:25:00,71.0,57.3,30.16,NNE,20,3.0,11.0,62,0.00,,BKN041,0.00,VWS V14.01,2013-09-05 17:25:00,
2013-09-05 13:30:00,71.1,55.6,30.16,North,351,4.0,11.0,58,0.00,,BKN041,0.00,VWS V14.01,2013-09-05 17:30:00,
2013-09-05 13:35:00,71.2,56.2,30.16,NW,306,2.0,9.0,59,0.00,,BKN041,0.00,VWS V14.01,2013-09-05 17:35:00,
2013-09-05 13:40:00,71.3,55.3,30.16,NW,304,4.0,9.0,57,0.00,,BKN041,0.00,VWS V14.01,2013-09-05 17:40:00,
2013-09-05 13:45:00,71.3,54.3,30.16,NW,321,4.0,11.0,55,0.00,,BKN041,0.00,VWS V14.01,2013-09-05 17:45:00,
2013-09-05 13:50:00,71.4,55.9,30.16,NNW,339,5.0,11.0,58,0.00,,BKN041,0.00,VWS V14.01,2013-09-05 17:50:00,
2013-09-05 13:55:00,71.3,54.8,30.16,WNW,284,1.0,11.0,56,0.00,,BKN041,0.00,VWS V14.01,2013-09-05 17:55:00,
2013-09-05 14:00:00,71.3,52.3,30.17,NNW,338,4.0,11.0,51,0.00,,FEW040,0.00,VWS V14.01,2013-09-05 18:00:00,
2013-09-05 14:05:00,70.8,54.8,30.17,NW,313,4.0,9.0,57,0.00,,FEW040,0.00,VWS V14.01,2013-09-05 18:05:00,
2013-09-05 14:11:00,70.8,55.3,30.17,NNW,330,6.0,9.0,58,0.00,,FEW040,0.00,VWS V14.01,2013-09-05 18:11:00,
2013-09-05 14:16:00,70.9,52.9,30.17,NW,306,4.0,9.0,53,0.00,,FEW040,0.00,VWS V14.01,2013-09-05 18:16:00,
2013-09-05 14:21:00,71.0,55.0,30.17,NW,306,4.0,9.0,57,0.00,,FEW040,0.00,VWS V14.01,2013-09-05 18:21:00,
2013-09-05 14:26:00,70.9,52.4,30.16,West,271,4.0,12.0,52,0.00,,FEW040,0.00,VWS V14.01,2013-09-05 18:26:00,
2013-09-05 14:31:00,70.4,54.0,30.17,NW,325,2.0,3.0,56,0.00,,FEW040,0.00,VWS V14.01,2013-09-05 18:31:00,
2013-09-05 14:36:00,70.4,53.5,30.17,NNW,348,5.0,10.0,55,0.00,,FEW040,0.00,VWS V14.01,2013-09-05 18:36:00,
2013-09-05 14:41:00,70.3,54.8,30.17,NW,308,5.0,10.0,58,0.00,,FEW040,0.00,VWS V14.01,2013-09-05 18:41:00,
2013-09-05 14:46:00,70.8,56.2,30.17,NNW,344,2.0,10.0,60,0.00,,FEW040,0.00,VWS V14.01,2013-09-05 18:46:00,
2013-09-05 14:51:00,70.5,52.0,30.16,WNW,292,0.0,10.0,52,0.00,,FEW040,0.00,VWS V14.01,2013-09-05 18:51:00,
2013-09-05 14:56:00,70.5,51.5,30.17,WNW,300,5.0,11.0,51,0.00,,FEW040,0.00,VWS V14.01,2013-09-05 18:56:00,
2013-09-05 15:01:00,70.3,48.6,30.16,NW,324,2.0,5.0,46,0.00,,FEW040,0.00,VWS V14.01,2013-09-05 19:01:00,
2013-09-05 15:06:00,70.3,51.9,30.16,WNW,294,2.0,10.0,52,0.00,,FEW040,0.00,VWS V14.01,2013-09-05 19:06:00,
2013-09-05 15:11:00,70.4,51.4,30.16,NW,310,1.0,10.0,51,0.00,,FEW040,0.00,VWS V14.01,2013-09-05 19:11:00,
2013-09-05 15:16:00,70.5,51.5,30.16,WNW,301,0.0,10.0,51,0.00,,FEW040,0.00,VWS V14.01,2013-09-05 19:16:00,
2013-09-05 15:21:00,70.9,52.9,30.16,WNW,286,8.0,10.0,53,0.00,,FEW040,0.00,VWS V14.01,2013-09-05 19:21:00,
2013-09-05 15:26:00,70.6,51.1,30.16,NW,315,5.0,10.0,50,0.00,,FEW040,0.00,VWS V14.01,2013-09-05 19:26:00,
2013-09-05 15:31:00,70.4,48.7,30.16,NW,310,2.0,8.0,46,0.00,,FEW040,0.00,VWS V14.01,2013-09-05 19:31:00,
2013-09-05 15:36:00,70.3,45.5,30.16,WNW,289,2.0,8.0,41,0.00,,FEW040,0.00,VWS V14.01,2013-09-05 19:36:00,
2013-09-05 15:41:00,70.2,46.7,30.16,NNW,343,2.0,10.0,43,0.00,,FEW040,0.00,VWS V14.01,2013-09-05 19:41:00,
2013-09-05 15:46:00,70.2,47.3,30.16,North,9,5.0,10.0,44,0.00,,FEW040,0.00,VWS V14.01,2013-09-05 19:46:00,
2013-09-05 15:52:00,70.0,45.2,30.16,NW,318,2.0,10.0,41,0.00,,FEW040,0.00,VWS V14.01,2013-09-05 19:52:00,
2013-09-05 15:57:00,70.0,46.5,30.16,NNW,329,2.0,11.0,43,0.00,,FEW040,0.00,VWS V14.01,2013-09-05 19:57:00,
2013-09-05 16:02:00,70.2,46.7,30.16,NNW,334,1.0,7.0,43,0.00,,CLR,0.00,VWS V14.01,2013-09-05 20:02:00,
2013-09-05 16:07:00,70.0,47.1,30.16,NNW,333,3.0,10.0,44,0.00,,CLR,0.00,VWS V14.01,2013-09-05 20:07:00,
2013-09-05 16:12:00,70.3,46.8,30.17,North,10,7.0,11.0,43,0.00,,CLR,0.00,VWS V14.01,2013-09-05 20:12:00,
2013-09-05 16:17:00,69.8,46.9,30.16,NNW,334,3.0,11.0,44,0.00,,CLR,0.00,VWS V14.01,2013-09-05 20:17:00,
2013-09-05 16:22:00,70.1,47.2,30.16,NNW,347,1.0,11.0,44,0.00,,CLR,0.00,VWS V14.01,2013-09-05 20:22:00,
2013-09-05 16:27:00,70.2,45.4,30.17,NNW,336,5.0,11.0,41,0.00,,CLR,0.00,VWS V14.01,2013-09-05 20:27:00,
2013-09-05 16:32:00,69.5,44.8,30.17,North,355,5.0,5.0,41,0.00,,CLR,0.00,VWS V14.01,2013-09-05 20:32:00,
2013-09-05 16:37:00,69.4,47.2,30.17,NNW,348,0.0,9.0,45,0.00,,CLR,0.00,VWS V14.01,2013-09-05 20:37:00,
2013-09-05 16:42:00,69.5,46.7,30.17,NNW,333,3.0,9.0,44,0.00,,CLR,0.00,VWS V14.01,2013-09-05 20:42:00,
2013-09-05 16:47:00,69.5,47.2,30.17,WNW,288,4.0,9.0,45,0.00,,CLR,0.00,VWS V14.01,2013-09-05 20:47:00,
2013-09-05 16:52:00,69.4,47.2,30.17,NNW,329,2.0,9.0,45,0.00,,CLR,0.00,VWS V14.01,2013-09-05 20:52:00,
2013-09-05 16:57:00,69.4,47.2,30.17,NNW,333,3.0,9.0,45,0.00,,CLR,0.00,VWS V14.01,2013-09-05 20:57:00,
2013-09-05 17:02:00,69.5,47.8,30.17,NNW,331,3.0,4.0,46,0.00,,CLR,0.00,VWS V14.01,2013-09-05 21:02:00,
2013-09-05 17:08:00,69.5,47.8,30.17,WNW,286,4.0,8.0,46,0.00,,CLR,0.00,VWS V14.01,2013-09-05 21:08:00,
2013-09-05 17:13:00,69.5,50.6,30.17,NNW,346,1.0,8.0,51,0.00,,CLR,0.00,VWS V14.01,2013-09-05 21:13:00,
2013-09-05 17:18:00,69.5,50.1,30.17,NNW,333,3.0,8.0,50,0.00,,CLR,0.00,VWS V14.01,2013-09-05 21:18:00,
2013-09-05 17:23:00,69.1,49.2,30.17,NNW,340,2.0,10.0,49,0.00,,CLR,0.00,VWS V14.01,2013-09-05 21:23:00,
2013-09-05 17:28:00,68.7,49.9,30.18,North,11,3.0,10.0,51,0.00,,CLR,0.00,VWS V14.01,2013-09-05 21:28:00,
2013-09-05 17:33:00,68.1,49.8,30.18,NNE,18,3.0,6.0,52,0.00,,CLR,0.00,VWS V14.01,2013-09-05 21:33:00,
2013-09-05 17:38:00,68.1,50.8,30.18,NW,319,2.0,6.0,54,0.00,,CLR,0.00,VWS V14.01,2013-09-05 21:38:00,
2013-09-05 17:43:00,67.9,51.2,30.18,NNW,333,3.0,6.0,55,0.00,,CLR,0.00,VWS V14.01,2013-09-05 21:43:00,
2013-09-05 17:48:00,67.4,51.2,30.18,North,5,3.0,10.0,56,0.00,,CLR,0.00,VWS V14.01,2013-09-05 21:48:00,
2013-09-05 17:53:00,67.1,51.4,30.18,NNE,19,3.0,10.0,57,0.00,,CLR,0.00,VWS V14.01,2013-09-05 21:53:00,
2013-09-05 17:58:00,67.0,52.2,30.19,NW,325,2.0,10.0,59,0.00,,CLR,0.00,VWS V14.01,2013-09-05 21:58:00,
2013-09-05 18:03:00,66.8,51.6,30.18,North,360,4.0,7.0,58,0.00,,CLR,0.00,VWS V14.01,2013-09-05 22:03:00,
2013-09-05 18:09:00,66.6,51.8,30.18,North,10,2.0,7.0,59,0.00,,CLR,0.00,VWS V14.01,2013-09-05 22:09:00,
2013-09-05 18:14:00,66.7,52.4,30.18,NNW,336,2.0,7.0,60,0.00,,CLR,0.00,VWS V14.01,2013-09-05 22:14:00,
2013-09-05 18:19:00,66.5,51.3,30.18,NNW,330,5.0,7.0,58,0.00,,CLR,0.00,VWS V14.01,2013-09-05 22:19:00,
2013-09-05 18:24:00,66.1,51.4,30.18,NW,313,0.0,8.0,59,0.00,,CLR,0.00,VWS V14.01,2013-09-05 22:24:00,
2013-09-05 18:29:00,66.0,51.3,30.18,North,5,3.0,8.0,59,0.00,,CLR,0.00,VWS V14.01,2013-09-05 22:29:00,
2013-09-05 18:34:00,65.8,51.5,30.19,WNW,298,2.0,7.0,60,0.00,,CLR,0.00,VWS V14.01,2013-09-05 22:34:00,
2013-09-05 18:39:00,65.7,51.9,30.18,NNW,332,3.0,8.0,61,0.00,,CLR,0.00,VWS V14.01,2013-09-05 22:39:00,
2013-09-05 18:44:00,65.5,51.7,30.18,NW,321,2.0,8.0,61,0.00,,CLR,0.00,VWS V14.01,2013-09-05 22:44:00,
2013-09-05 18:49:00,65.2,52.3,30.18,NNW,329,1.0,8.0,63,0.00,,CLR,0.00,VWS V14.01,2013-09-05 22:49:00,
2013-09-05 18:54:00,65.0,52.1,30.18,NNW,333,2.0,8.0,63,0.00,,CLR,0.00,VWS V14.01,2013-09-05 22:54:00,
2013-09-05 18:59:00,64.8,51.9,30.18,NNE,15,1.0,8.0,63,0.00,,CLR,0.00,VWS V14.01,2013-09-05 22:59:00,
2013-09-05 19:04:00,64.6,52.2,30.18,NW,315,5.0,5.0,64,0.00,,CLR,0.00,VWS V14.01,2013-09-05 23:04:00,
2013-09-05 19:09:00,64.3,52.3,30.18,NNE,28,0.0,7.0,65,0.00,,CLR,0.00,VWS V14.01,2013-09-05 23:09:00,
2013-09-05 19:14:00,64.0,52.0,30.18,North,360,3.0,7.0,65,0.00,,CLR,0.00,VWS V14.01,2013-09-05 23:14:00,
2013-09-05 19:20:00,63.8,52.2,30.18,NNE,13,2.0,7.0,66,0.00,,CLR,0.00,VWS V14.01,2013-09-05 23:20:00,
2013-09-05 19:25:00,63.6,52.5,30.18,NNW,336,2.0,7.0,67,0.00,,CLR,0.00,VWS V14.01,2013-09-05 23:25:00,
2013-09-05 19:30:00,63.2,52.1,30.18,NE,42,2.0,7.0,67,0.00,,CLR,0.00,VWS V14.01,2013-09-05 23:30:00,
2013-09-05 19:35:00,62.7,52.0,30.18,NNE,22,1.0,4.0,68,0.00,,CLR,0.00,VWS V14.01,2013-09-05 23:35:00,
2013-09-05 19:44:00,62.0,52.1,30.19,NNE,21,0.0,0.0,70,0.00,,,0.00,VWS V14.01,2013-09-05 23:44:00,
2013-09-05 19:49:00,61.6,52.5,30.19,NNE,21,0.0,0.0,72,0.00,,,0.00,VWS V14.01,2013-09-05 23:49:00,
2013-09-05 19:54:00,61.1,52.4,30.19,NNE,21,0.0,0.0,73,0.00,,,0.00,VWS V14.01,2013-09-05 23:54:00,
2013-09-05 19:59:00,60.7,52.4,30.18,NNE,21,0.0,0.0,74,0.00,,,0.00,VWS V14.01,2013-09-05 23:59:00,
2013-09-05 20:04:00,60.3,52.3,30.19,NNE,21,0.0,0.0,75,0.00,,CLR,0.00,VWS V14.01,2013-09-06 00:04:00,
2013-09-05 20:09:00,59.9,52.3,30.19,NNE,21,0.0,0.0,76,0.00,,CLR,0.00,VWS V14.01,2013-09-06 00:09:00,
2013-09-05 20:14:00,59.5,52.3,30.19,NNE,21,0.0,0.0,77,0.00,,CLR,0.00,VWS V14.01,2013-09-06 00:14:00,
2013-09-05 20:19:00,59.1,51.9,30.19,NNE,21,0.0,0.0,77,0.00,,CLR,0.00,VWS V14.01,2013-09-06 00:19:00,
2013-09-05 20:24:00,58.7,51.9,30.19,NNE,21,0.0,0.0,78,0.00,,CLR,0.00,VWS V14.01,2013-09-06 00:24:00,
2013-09-05 20:30:00,58.4,51.9,30.19,NNE,21,0.0,0.0,79,0.00,,CLR,0.00,VWS V14.01,2013-09-06 00:30:00,
2013-09-05 20:35:00,58.0,51.9,30.19,NNE,21,0.0,0.0,80,0.00,,CLR,0.00,VWS V14.01,2013-09-06 00:35:00,
2013-09-05 20:40:00,57.7,51.9,30.20,NNE,21,0.0,0.0,81,0.00,,CLR,0.00,VWS V14.01,2013-09-06 00:40:00,
2013-09-05 20:45:00,57.4,51.6,30.20,NNE,21,0.0,0.0,81,0.00,,CLR,0.00,VWS V14.01,2013-09-06 00:45:00,
2013-09-05 20:50:00,57.2,51.4,30.20,NNE,21,0.0,0.0,81,0.00,,CLR,0.00,VWS V14.01,2013-09-06 00:50:00,
2013-09-05 20:55:00,57.0,51.6,30.19,NNE,21,0.0,0.0,82,0.00,,CLR,0.00,VWS V14.01,2013-09-06 00:55:00,
2013-09-05 21:00:00,56.8,51.4,30.19,NNE,21,0.0,0.0,82,0.00,,CLR,0.00,VWS V14.01,2013-09-06 01:00:00,
2013-09-05 21:05:00,56.6,51.2,30.20,NNE,21,0.0,0.0,82,0.00,,CLR,0.00,VWS V14.01,2013-09-06 01:05:00,
2013-09-05 21:10:00,56.4,51.0,30.20,NNE,21,0.0,0.0,82,0.00,,CLR,0.00,VWS V14.01,2013-09-06 01:10:00,
2013-09-05 21:15:00,56.3,50.9,30.20,NNE,21,0.0,0.0,82,0.00,,CLR,0.00,VWS V14.01,2013-09-06 01:15:00,
2013-09-05 21:21:00,56.1,51.0,30.20,NNE,21,0.0,0.0,83,0.00,,CLR,0.00,VWS V14.01,2013-09-06 01:21:00,
2013-09-05 21:26:00,55.9,50.8,30.20,NNE,21,0.0,0.0,83,0.00,,CLR,0.00,VWS V14.01,2013-09-06 01:26:00,
2013-09-05 21:31:00,55.8,50.7,30.20,NNE,21,0.0,0.0,83,0.00,,CLR,0.00,VWS V14.01,2013-09-06 01:31:00,
2013-09-05 21:36:00,55.7,50.6,30.21,NNE,21,0.0,0.0,83,0.00,,CLR,0.00,VWS V14.01,2013-09-06 01:36:00,
2013-09-05 21:41:00,55.5,50.4,30.21,NNE,21,0.0,0.0,83,0.00,,CLR,0.00,VWS V14.01,2013-09-06 01:41:00,
2013-09-05 21:46:00,55.3,50.6,30.21,NNE,21,0.0,0.0,84,0.00,,CLR,0.00,VWS V14.01,2013-09-06 01:46:00,
2013-09-05 21:51:00,55.0,50.6,30.21,NNE,21,0.0,0.0,85,0.00,,CLR,0.00,VWS V14.01,2013-09-06 01:51:00,
2013-09-05 21:56:00,54.9,50.5,30.21,NNE,21,0.0,0.0,85,0.00,,CLR,0.00,VWS V14.01,2013-09-06 01:56:00,
2013-09-05 22:01:00,54.8,50.4,30.21,NNE,21,0.0,0.0,85,0.00,,CLR,0.00,VWS V14.01,2013-09-06 02:01:00,
2013-09-05 22:07:00,54.6,50.5,30.21,NNE,21,0.0,0.0,86,0.00,,CLR,0.00,VWS V14.01,2013-09-06 02:07:00,
2013-09-05 22:12:00,54.4,50.3,30.22,NNE,21,0.0,0.0,86,0.00,,CLR,0.00,VWS V14.01,2013-09-06 02:12:00,
2013-09-05 22:17:00,54.3,50.2,30.22,NNE,21,0.0,0.0,86,0.00,,CLR,0.00,VWS V14.01,2013-09-06 02:17:00,
2013-09-05 22:22:00,54.2,50.1,30.21,NNE,21,0.0,0.0,86,0.00,,CLR,0.00,VWS V14.01,2013-09-06 02:22:00,
2013-09-05 22:27:00,54.1,50.0,30.22,NNE,21,0.0,0.0,86,0.00,,CLR,0.00,VWS V14.01,2013-09-06 02:27:00,
2013-09-05 22:32:00,54.1,50.0,30.22,NNE,21,0.0,0.0,86,0.00,,CLR,0.00,VWS V14.01,2013-09-06 02:32:00,
2013-09-05 22:37:00,54.0,49.9,30.22,NNE,21,0.0,0.0,86,0.00,,CLR,0.00,VWS V14.01,2013-09-06 02:37:00,
2013-09-05 22:42:00,53.9,49.8,30.22,NNE,21,0.0,0.0,86,0.00,,CLR,0.00,VWS V14.01,2013-09-06 02:42:00,
2013-09-05 22:47:00,53.8,49.7,30.22,NNE,21,0.0,0.0,86,0.00,,CLR,0.00,VWS V14.01,2013-09-06 02:47:00,
2013-09-05 22:52:00,53.7,49.6,30.22,NNE,21,0.0,0.0,86,0.00,,CLR,0.00,VWS V14.01,2013-09-06 02:52:00,
2013-09-05 22:58:00,53.7,49.6,30.23,NNE,21,0.0,0.0,86,0.00,,CLR,0.00,VWS V14.01,2013-09-06 02:58:00,
2013-09-05 23:03:00,53.5,49.1,30.23,NNE,21,0.0,0.0,85,0.00,,CLR,0.00,VWS V14.01,2013-09-06 03:03:00,
2013-09-05 23:08:00,53.5,49.1,30.23,NNE,21,0.0,0.0,85,0.00,,CLR,0.00,VWS V14.01,2013-09-06 03:08:00,
2013-09-05 23:13:00,53.4,49.0,30.23,NNE,21,0.0,0.0,85,0.00,,CLR,0.00,VWS V14.01,2013-09-06 03:13:00,
2013-09-05 23:18:00,53.3,48.9,30.23,NNE,21,0.0,0.0,85,0.00,,CLR,0.00,VWS V14.01,2013-09-06 03:18:00,
2013-09-05 23:23:00,53.2,49.1,30.23,NNE,21,0.0,0.0,86,0.00,,CLR,0.00,VWS V14.01,2013-09-06 03:23:00,
2013-09-05 23:28:00,53.1,49.0,30.23,NNE,21,0.0,0.0,86,0.00,,CLR,0.00,VWS V14.01,2013-09-06 03:28:00,
2013-09-05 23:33:00,52.9,48.8,30.22,NNE,21,0.0,0.0,86,0.00,,CLR,0.00,VWS V14.01,2013-09-06 03:33:00,
2013-09-05 23:38:00,52.7,49.0,30.22,NNE,21,0.0,0.0,87,0.00,,CLR,0.00,VWS V14.01,2013-09-06 03:38:00,
2013-09-05 23:43:00,52.6,48.8,30.22,NNE,21,0.0,0.0,87,0.00,,CLR,0.00,VWS V14.01,2013-09-06 03:43:00,
2013-09-05 23:48:00,52.4,48.3,30.22,NNE,21,0.0,0.0,86,0.00,,CLR,0.00,VWS V14.01,2013-09-06 03:48:00,
2013-09-05 23:54:00,52.2,48.2,30.22,NNE,21,0.0,0.0,86,0.00,,CLR,0.00,VWS V14.01,2013-09-06 03:54:00,
2013-09-05 23:59:00,52.1,48.0,30.22,NNE,21,0.0,0.0,86,0.00,,CLR,0.00,VWS V14.01,2013-09-06 03:59:00,